Bassem Kahraba

Recruteur - Zamalek
6 Août 2028
Dimanche
Processus

Personnalité

Adaptabilité (7) Ambition (12) Controverse (13) Loyauté (5) Pression (4) Professionnalisme (10) Sportivité (10) Tempérament (3)

Profil

Style d'entraînement Démocratique
Diplôme Continental C
Détermination 12
Gestion des joueurs 10
Motivation 5
Discipline 9
Satisfaction professionnelle
100%
Fatigue
0%
Rôle Recruteur
Salaire 33.7K p/s
Contrat 14.03.2029

Performance

Comportement Bon
Efficacité de l'entraînement
51%
Développement des joueurs
50%
Prévention des blessures
55%
Mise en place tactique
50%

Événements récents

A participé à une réunion de recrutement maintenant
A participé à une réunion de recrutement 7j
A recommandé une cible de transfert 7j
A recommandé une cible de transfert 7j
A participé à une réunion de recrutement 14j
A recommandé une cible de transfert 14j
A recommandé une cible de transfert 14j
A recommandé une cible de transfert 21j

Suivi en cours

96
Joueur Club Statut Capacité Confiance Observé Dernière observation Dernier vote
Ben Gannon Doak Charlton Athletic Actif 155 / 155 40% 1 05.06.2028 -
André Wolverhampton Actif 161 / 154 40% 1 05.06.2028 -
Ryan Sessegnon Fulham Actif 145 / 152 40% 1 05.06.2028 -
Manuel Ugarte Leicester City Actif 146 / 151 40% 1 31.05.2028 -
Andrey Santos Bolton Wanderers Actif 151 / 152 40% 1 31.05.2028 -
Mohamed Sherif Al Gaish Actif 104 / 115 69% 1 05.01.2028 Approuver
Telasco Segovia Inter Miami CF Actif 142 / 136 40% 1 31.12.2027 Plus d'infos
Théo Hernández CSKA Moscow Actif 157 / 151 40% 1 31.12.2027 -
Houssem Aouar Al-Ittihad Actif 156 / 148 40% 1 31.12.2027 -
Moustafa Zeidan El Masry Actif 109 / 116 65% 1 02.06.2027 Approuver
Vitinha Genoa Actif 141 / 136 40% 1 01.06.2027 -
Ibrahim Bayesh Al Dhafra Actif 120 / 126 40% 3 30.05.2027 -
Sam Bell Bristol City Actif 132 / 125 40% 1 30.05.2027 -
Ibrahim Saeed Al Shabab Actif 136 / 138 40% 3 27.05.2027 -
Adrian Šemper Al-Fateh Actif 145 / 129 40% 3 25.05.2027 -
Anthony Patterson Wrexham Actif 145 / 135 40% 6 25.05.2027 -
Balázs Tóth Blackburn Rovers Actif 134 / 126 40% 3 25.05.2027 -
Oston O'runov Persepolis Actif 113 / 119 40% 3 21.05.2027 -
Pelle Mattsson Norwich City Actif 111 / 120 40% 1 21.05.2027 -
Mehdi Ghayedi Al Nasr Actif 123 / 129 40% 3 20.05.2027 -
Josh Murphy Portsmouth Actif 129 / 125 40% 4 20.05.2027 -
Vladan Kovačević Norwich City Actif 109 / 124 40% 2 19.05.2027 -
Rustam Yatimov Rostov Actif 119 / 121 40% 2 19.05.2027 -
Josh Keeley Luton Town Actif 137 / 126 40% 5 18.05.2027 -
Mohau Nkota Al-Ettifaq Actif 125 / 122 40% 5 17.05.2027 -
Riccardo Gagno Vicenza Actif 111 / 118 40% 4 17.05.2027 -
Williams Mabunda Ajax Cape Town Actif 111 / 115 40% 2 17.05.2027 -
Jonathan Klinsmann Cesena Actif 123 / 124 40% 5 15.05.2027 -
Ivor Pandur Hull City Actif 116 / 124 40% 2 14.05.2027 -
Jason Al-Fayha Actif 121 / 128 40% 3 10.05.2027 -
Turki Al-Ammar Al-Qadisiyah Actif 129 / 119 40% 1 10.05.2027 -
Óscar Al-Diriyah Actif 130 / 126 40% 6 09.05.2027 -
Mamadou Coulibaly Al Jazira Actif 131 / 124 40% 1 09.05.2027 -
Oufa Shobeir MC Alger Actif 131 / 124 40% 3 07.05.2027 -
Mikey Johnston West Bromwich Albion Actif 115 / 116 40% 1 06.05.2027 -
Kieran Dowell Hull City Actif 134 / 126 40% 1 06.05.2027 -
Milson Al Jazira Actif 114 / 124 40% 6 01.05.2027 -
Valentino Lazaro Al Ain Actif 153 / 133 40% 2 01.05.2027 -
Tahith Chong Sheffield United Actif 126 / 116 40% 1 30.04.2027 -
Alex Robertson Cardiff City Actif 116 / 122 40% 1 29.04.2027 -
Rocco Vata Watford Actif 125 / 128 40% 1 29.04.2027 -
Mohammad Mehdi Mohebi Persepolis Actif 112 / 111 40% 2 22.04.2027 -
Khalid Al-Ghannam Al-Ettifaq Actif 131 / 115 40% 1 22.04.2027 -
Oswin Appollis Orlando Pirates Actif 116 / 120 40% 4 21.04.2027 -
Lukáš Haraslín Al-Fateh Actif 136 / 130 40% 2 20.04.2027 -
Maílson Al-Taawoun Actif 120 / 123 40% 2 18.04.2027 -
Ryoya Morishita Blackburn Rovers Actif 129 / 130 40% 1 16.04.2027 -
Grégoire Coudert Burnley Actif 143 / 125 40% 2 11.04.2027 -
Alex Palmer Ipswich Town Actif 130 / 131 40% 2 11.04.2027 -
Serginho Al Wasl Actif 137 / 133 40% 4 09.04.2027 -
Teddy Okou Al-Riyadh Actif 119 / 121 40% 1 09.04.2027 -
Lukas Jensen Millwall Actif 115 / 123 40% 1 06.04.2027 -
Nathan Trott Cardiff City Actif 136 / 122 40% 1 04.04.2027 -
Simone Scuffet Pisa Actif 142 / 136 40% 1 04.04.2027 -
Marcelo Allende Mamelodi Sundowns Actif 138 / 133 40% 1 04.04.2027 -
Dion Lopy Al-Ittihad Actif 142 / 131 40% 1 01.04.2027 -
Trezeguet Al-Riyadh Actif 133 / 124 40% 2 30.03.2027 -
Elia Caprile Cagliari Actif 141 / 140 40% 1 28.03.2027 -
Morgan Billiat SuperSport United Actif 125 / 122 40% 1 24.03.2027 -
Caio Lucas Al Ain Actif 137 / 130 40% 1 24.03.2027 -
Marouan Azarkan Al Nasr Actif 121 / 125 40% 2 21.03.2027 -
Peter Olayinka Al-Wehda Actif 135 / 123 40% 1 21.03.2027 -
Nicolás Giménez Al Wasl Actif 138 / 122 40% 1 08.03.2027 -
Sipho Chaine Orlando Pirates Actif 112 / 117 40% 3 05.03.2027 -
Álvaro Medrán Al-Ettifaq Actif 118 / 131 40% 1 05.03.2027 -
Siaka Sidibé Al Wasl Actif 112 / 120 40% 1 05.03.2027 -
Gianmarco Vannucchi Benevento Actif 105 / 115 40% 1 05.03.2027 -
Maduka Okoye Udinese Actif 145 / 135 40% 1 04.03.2027 -
Fran Vieites Walsall Actif 112 / 112 40% 1 19.02.2027 -
Bongani Zungu Ajax Cape Town Actif 119 / 128 40% 2 17.02.2027 -
Angelo Fulgini Al-Khaleej Actif 124 / 119 40% 1 14.02.2027 -
Renato Tapia Al Wasl Actif 139 / 140 40% 1 13.02.2027 -
Luan Pereira Sharjah Actif 128 / 127 40% 1 09.02.2027 -
Mamadou Sylla Al-Riyadh Actif 114 / 123 40% 1 08.02.2027 -
Martin Zlomislić Qarabag Actif 121 / 121 40% 1 05.02.2027 -
Payam Niazmand Persepolis Actif 119 / 122 40% 1 03.02.2027 -
Halldór Snær Georgsson KR Actif 103 / 109 40% 1 02.01.2027 -
Masoud Hajsafi Padideh Actif 104 / 106 40% 2 30.12.2026 -
Ľubomír Belko Viking Actif 138 / 128 40% 2 29.12.2026 -
Ilja Tuseev Chelyabinsk Actif 86 / 100 40% 3 29.12.2026 -
Oumar Coulibaly Djoliba Actif 83 / 102 40% 1 29.12.2026 -
Árni Marinó Einarsson IA Actif 112 / 108 40% 1 27.12.2026 -
Ali Ishaku Abia Warriors Actif 87 / 89 40% 4 25.12.2026 -
Luka Baš Koper Actif 116 / 106 40% 3 25.12.2026 -
Lucas Bergström Union Berlin Actif 135 / 121 40% 1 13.12.2026 -
Itumeleng Grobler Free State Stars Actif 97 / 98 40% 1 13.12.2026 -
Edmund Afful Hasaacas Actif 88 / 94 40% 2 09.12.2026 -
Nikita Yanovich Tyumen Actif 81 / 89 40% 1 09.12.2026 -
Mikhail Gaidash Spartak Kostroma Actif 103 / 96 40% 1 09.12.2026 -
Filip Samurović Radnik Surdulica Actif 93 / 106 40% 1 26.11.2026 -
Biola Sabitu Remo Stars Actif 89 / 92 40% 1 24.11.2026 -
Gladson Amoah Liberty Professionals Actif 87 / 97 40% 1 20.11.2026 -
John Amah Plateau United Actif 95 / 96 40% 2 17.11.2026 -
Ifeanyi Emmanuel Niger Tornadoes Actif 96 / 94 40% 2 17.11.2026 -
Frankarlos Benítez Caracas Actif 92 / 104 40% 2 10.11.2026 -
Levan Tandilashvili Egnatia Rrogozhinë Actif 94 / 115 40% 1 06.11.2026 -